メインページ
METAR-TAF:

METAR-TAF

空港 :

クリアカン, メキシコ

緯度: 24-49N, 経度: 107-24W, 海抜: 39m

現時点の気象観測

当レポートは1時間4分前の10:48(UTC)に作成
無風
気温 16°C
湿度 72%
気圧 1015 hPa
視程: 16.1km
晴天

METAR: MMCL 241048Z 00000KT 10SM SKC 16/11 A2998

時間: 04:52 (11:52 UTC)

予報

当レポートは6時間57分前の04:55(UTC)に作成
予報は24日の 06時(UTC)から 25日の 06時(UTC)まで有効
の風 kt
視程: 10km
晴天
24日の 1800時(UTC)から
西の風 10kt
視程: 10km
晴天
25日の 0400時(UTC)から
西/南西の風 5kt
視程: 10km
晴天

TAF: MMCL 240455Z 2406/2506 00000KT P6SM SKC FM241800 28010KT P6SM SKC FM250400 24005KT P6SM SKC

4,000以上の空港の気象観測と天気予報(METAR報とTAF報)

利用可能な観測所は地図上に黄色い丸と赤い丸で示す。

丸の上にカーソルを重ねると観測所名を参照できる。

次にクリックすると気象観測と天気予報を参照できる。

マップの切り替え:黒色「×」印の緑ボタンをクリックして拡大、「-」印の緑ボタンをクリックして縮小、緑色の三角印をクリックして隣りの地図に切り替え


METAR-TAF: